sensor_id;sensor_type;location;lat;lon;timestamp;P1;durP1;ratioP1;P2;durP2;ratioP2
52888;SDS011;41413;52.770;6.892;2023-05-24T00:02:08;825.88;;;713.10;;
52888;SDS011;41413;52.770;6.892;2023-05-24T00:04:35;861.72;;;726.17;;
52888;SDS011;41413;52.770;6.892;2023-05-24T00:07:02;858.33;;;726.45;;
52888;SDS011;41413;52.770;6.892;2023-05-24T00:09:29;836.70;;;731.17;;
52888;SDS011;41413;52.770;6.892;2023-05-24T00:11:56;825.58;;;700.00;;
52888;SDS011;41413;52.770;6.892;2023-05-24T00:14:23;809.15;;;719.92;;
52888;SDS011;41413;52.770;6.892;2023-05-24T00:16:50;867.13;;;752.03;;
52888;SDS011;41413;52.770;6.892;2023-05-24T00:19:17;880.50;;;744.22;;
52888;SDS011;41413;52.770;6.892;2023-05-24T00:21:47;834.03;;;736.53;;
52888;SDS011;41413;52.770;6.892;2023-05-24T00:24:14;808.17;;;683.58;;
52888;SDS011;41413;52.770;6.892;2023-05-24T00:26:42;846.92;;;748.50;;
52888;SDS011;41413;52.770;6.892;2023-05-24T00:29:09;890.63;;;752.97;;
52888;SDS011;41413;52.770;6.892;2023-05-24T00:31:36;871.13;;;737.00;;
52888;SDS011;41413;52.770;6.892;2023-05-24T00:34:03;914.38;;;752.75;;
52888;SDS011;41413;52.770;6.892;2023-05-24T00:36:29;845.47;;;731.83;;
52888;SDS011;41413;52.770;6.892;2023-05-24T00:38:56;832.10;;;722.38;;
52888;SDS011;41413;52.770;6.892;2023-05-24T00:41:23;853.35;;;735.67;;
52888;SDS011;41413;52.770;6.892;2023-05-24T00:43:51;803.65;;;686.35;;
52888;SDS011;41413;52.770;6.892;2023-05-24T00:46:20;889.83;;;751.38;;
52888;SDS011;41413;52.770;6.892;2023-05-24T00:48:50;778.72;;;693.10;;
52888;SDS011;41413;52.770;6.892;2023-05-24T00:51:17;935.63;;;763.25;;
52888;SDS011;41413;52.770;6.892;2023-05-24T00:53:45;939.95;;;770.67;;
52888;SDS011;41413;52.770;6.892;2023-05-24T00:56:13;854.75;;;730.15;;
52888;SDS011;41413;52.770;6.892;2023-05-24T00:58:41;871.00;;;752.72;;
52888;SDS011;41413;52.770;6.892;2023-05-24T01:01:09;845.65;;;719.20;;
52888;SDS011;41413;52.770;6.892;2023-05-24T01:03:36;828.80;;;709.15;;
52888;SDS011;41413;52.770;6.892;2023-05-24T01:06:03;926.53;;;753.25;;
52888;SDS011;41413;52.770;6.892;2023-05-24T01:11:09;915.10;;;765.72;;
52888;SDS011;41413;52.770;6.892;2023-05-24T01:16:48;928.50;;;736.40;;
52888;SDS011;41413;52.770;6.892;2023-05-24T01:22:04;852.92;;;728.67;;
52888;SDS011;41413;52.770;6.892;2023-05-24T01:28:07;841.60;;;720.33;;
52888;SDS011;41413;52.770;6.892;2023-05-24T01:30:34;905.45;;;741.15;;
52888;SDS011;41413;52.770;6.892;2023-05-24T01:33:01;862.65;;;734.47;;
52888;SDS011;41413;52.770;6.892;2023-05-24T01:35:29;841.72;;;721.38;;
52888;SDS011;41413;52.770;6.892;2023-05-24T01:37:55;828.60;;;686.33;;
52888;SDS011;41413;52.770;6.892;2023-05-24T01:40:22;953.30;;;766.58;;
52888;SDS011;41413;52.770;6.892;2023-05-24T01:42:58;991.83;;;817.75;;
52888;SDS011;41413;52.770;6.892;2023-05-24T01:45:38;923.92;;;742.97;;
52888;SDS011;41413;52.770;6.892;2023-05-24T01:48:14;895.30;;;731.10;;
52888;SDS011;41413;52.770;6.892;2023-05-24T01:50:54;860.72;;;710.63;;
52888;SDS011;41413;52.770;6.892;2023-05-24T01:53:25;945.63;;;751.30;;
52888;SDS011;41413;52.770;6.892;2023-05-24T01:56:01;981.15;;;776.55;;
52888;SDS011;41413;52.770;6.892;2023-05-24T01:58:30;940.58;;;768.95;;
52888;SDS011;41413;52.770;6.892;2023-05-24T02:01:00;942.83;;;759.08;;
52888;SDS011;41413;52.770;6.892;2023-05-24T02:03:28;905.38;;;751.10;;
52888;SDS011;41413;52.770;6.892;2023-05-24T02:05:54;899.75;;;725.47;;
52888;SDS011;41413;52.770;6.892;2023-05-24T02:08:21;822.67;;;690.55;;
52888;SDS011;41413;52.770;6.892;2023-05-24T02:10:48;895.78;;;730.58;;
52888;SDS011;41413;52.770;6.892;2023-05-24T02:13:15;964.85;;;773.40;;
52888;SDS011;41413;52.770;6.892;2023-05-24T02:15:43;934.88;;;750.25;;
52888;SDS011;41413;52.770;6.892;2023-05-24T02:18:10;904.10;;;761.55;;
52888;SDS011;41413;52.770;6.892;2023-05-24T02:20:38;892.17;;;748.70;;
52888;SDS011;41413;52.770;6.892;2023-05-24T02:23:05;994.30;;;795.13;;
52888;SDS011;41413;52.770;6.892;2023-05-24T02:25:32;967.70;;;770.53;;
52888;SDS011;41413;52.770;6.892;2023-05-24T02:27:59;910.45;;;755.65;;
52888;SDS011;41413;52.770;6.892;2023-05-24T02:30:26;876.60;;;720.42;;
52888;SDS011;41413;52.770;6.892;2023-05-24T02:32:53;910.55;;;749.35;;
52888;SDS011;41413;52.770;6.892;2023-05-24T02:35:19;879.70;;;721.08;;
52888;SDS011;41413;52.770;6.892;2023-05-24T02:37:46;934.83;;;780.03;;
52888;SDS011;41413;52.770;6.892;2023-05-24T02:40:13;885.28;;;756.70;;
52888;SDS011;41413;52.770;6.892;2023-05-24T02:42:40;929.40;;;776.97;;
52888;SDS011;41413;52.770;6.892;2023-05-24T02:45:07;970.03;;;811.80;;
52888;SDS011;41413;52.770;6.892;2023-05-24T02:47:34;903.03;;;737.60;;
52888;SDS011;41413;52.770;6.892;2023-05-24T02:50:01;950.33;;;767.50;;
52888;SDS011;41413;52.770;6.892;2023-05-24T02:52:27;983.38;;;771.28;;
52888;SDS011;41413;52.770;6.892;2023-05-24T02:54:54;1020.00;;;805.47;;
52888;SDS011;41413;52.770;6.892;2023-05-24T02:57:21;861.90;;;730.08;;
52888;SDS011;41413;52.770;6.892;2023-05-24T02:59:48;923.55;;;753.05;;
52888;SDS011;41413;52.770;6.892;2023-05-24T03:02:15;998.78;;;815.65;;
52888;SDS011;41413;52.770;6.892;2023-05-24T03:04:43;938.22;;;754.50;;
52888;SDS011;41413;52.770;6.892;2023-05-24T03:07:09;970.50;;;752.03;;
52888;SDS011;41413;52.770;6.892;2023-05-24T03:09:36;966.28;;;776.20;;
52888;SDS011;41413;52.770;6.892;2023-05-24T03:12:03;949.85;;;771.72;;
52888;SDS011;41413;52.770;6.892;2023-05-24T03:14:30;938.08;;;763.30;;
52888;SDS011;41413;52.770;6.892;2023-05-24T03:16:57;976.50;;;774.08;;
52888;SDS011;41413;52.770;6.892;2023-05-24T03:19:24;871.35;;;714.03;;
52888;SDS011;41413;52.770;6.892;2023-05-24T03:21:51;938.05;;;737.83;;
52888;SDS011;41413;52.770;6.892;2023-05-24T03:24:17;883.78;;;711.42;;
52888;SDS011;41413;52.770;6.892;2023-05-24T03:26:44;945.85;;;762.88;;
52888;SDS011;41413;52.770;6.892;2023-05-24T03:29:11;949.47;;;758.55;;
52888;SDS011;41413;52.770;6.892;2023-05-24T03:31:37;931.40;;;756.38;;
52888;SDS011;41413;52.770;6.892;2023-05-24T03:34:04;984.75;;;783.17;;
52888;SDS011;41413;52.770;6.892;2023-05-24T03:36:32;935.47;;;757.97;;
52888;SDS011;41413;52.770;6.892;2023-05-24T03:38:59;897.08;;;740.28;;
52888;SDS011;41413;52.770;6.892;2023-05-24T03:41:26;990.63;;;758.15;;
52888;SDS011;41413;52.770;6.892;2023-05-24T03:43:53;955.30;;;785.63;;
52888;SDS011;41413;52.770;6.892;2023-05-24T03:46:20;995.30;;;796.92;;
52888;SDS011;41413;52.770;6.892;2023-05-24T03:48:47;922.97;;;771.17;;
52888;SDS011;41413;52.770;6.892;2023-05-24T03:51:14;920.80;;;761.22;;
52888;SDS011;41413;52.770;6.892;2023-05-24T03:53:40;1012.72;;;821.88;;
52888;SDS011;41413;52.770;6.892;2023-05-24T03:56:07;994.78;;;787.60;;
52888;SDS011;41413;52.770;6.892;2023-05-24T03:58:34;958.40;;;757.25;;
52888;SDS011;41413;52.770;6.892;2023-05-24T04:01:01;1031.85;;;818.88;;
52888;SDS011;41413;52.770;6.892;2023-05-24T04:03:28;1005.85;;;781.05;;
52888;SDS011;41413;52.770;6.892;2023-05-24T04:05:55;1020.33;;;814.97;;
52888;SDS011;41413;52.770;6.892;2023-05-24T04:08:21;1031.45;;;806.55;;
52888;SDS011;41413;52.770;6.892;2023-05-24T04:10:48;1007.28;;;802.53;;
52888;SDS011;41413;52.770;6.892;2023-05-24T04:13:15;938.05;;;776.25;;
52888;SDS011;41413;52.770;6.892;2023-05-24T04:15:42;951.28;;;751.55;;
52888;SDS011;41413;52.770;6.892;2023-05-24T04:18:08;1068.97;;;832.63;;
52888;SDS011;41413;52.770;6.892;2023-05-24T04:20:35;998.50;;;798.15;;
52888;SDS011;41413;52.770;6.892;2023-05-24T04:23:03;957.85;;;768.40;;
52888;SDS011;41413;52.770;6.892;2023-05-24T04:25:30;943.63;;;757.55;;
52888;SDS011;41413;52.770;6.892;2023-05-24T04:27:58;848.83;;;700.05;;
52888;SDS011;41413;52.770;6.892;2023-05-24T04:30:25;944.22;;;775.53;;
52888;SDS011;41413;52.770;6.892;2023-05-24T04:32:55;871.95;;;736.42;;
52888;SDS011;41413;52.770;6.892;2023-05-24T04:35:23;942.67;;;746.55;;
52888;SDS011;41413;52.770;6.892;2023-05-24T04:37:53;963.42;;;776.70;;
52888;SDS011;41413;52.770;6.892;2023-05-24T04:40:20;986.55;;;794.65;;
52888;SDS011;41413;52.770;6.892;2023-05-24T04:42:48;885.33;;;742.20;;
52888;SDS011;41413;52.770;6.892;2023-05-24T04:45:15;1041.38;;;814.05;;
52888;SDS011;41413;52.770;6.892;2023-05-24T04:47:42;926.95;;;770.53;;
52888;SDS011;41413;52.770;6.892;2023-05-24T04:50:11;936.10;;;784.28;;
52888;SDS011;41413;52.770;6.892;2023-05-24T04:52:38;877.35;;;734.30;;
52888;SDS011;41413;52.770;6.892;2023-05-24T04:55:05;927.65;;;735.92;;
52888;SDS011;41413;52.770;6.892;2023-05-24T04:57:32;979.78;;;790.10;;
52888;SDS011;41413;52.770;6.892;2023-05-24T04:59:59;1036.63;;;821.83;;
52888;SDS011;41413;52.770;6.892;2023-05-24T05:02:26;863.13;;;720.65;;
52888;SDS011;41413;52.770;6.892;2023-05-24T05:04:52;922.85;;;745.78;;
52888;SDS011;41413;52.770;6.892;2023-05-24T05:07:19;1003.38;;;822.45;;
52888;SDS011;41413;52.770;6.892;2023-05-24T05:09:46;928.10;;;788.40;;
52888;SDS011;41413;52.770;6.892;2023-05-24T05:12:13;888.45;;;749.97;;
52888;SDS011;41413;52.770;6.892;2023-05-24T05:14:40;862.33;;;726.53;;
52888;SDS011;41413;52.770;6.892;2023-05-24T05:17:07;969.28;;;780.55;;
52888;SDS011;41413;52.770;6.892;2023-05-24T05:19:34;893.08;;;759.42;;
52888;SDS011;41413;52.770;6.892;2023-05-24T05:22:00;864.95;;;729.80;;
52888;SDS011;41413;52.770;6.892;2023-05-24T05:24:27;926.25;;;780.13;;
52888;SDS011;41413;52.770;6.892;2023-05-24T05:26:54;1053.80;;;833.33;;
52888;SDS011;41413;52.770;6.892;2023-05-24T05:29:21;809.20;;;669.92;;
52888;SDS011;41413;52.770;6.892;2023-05-24T05:31:49;1029.60;;;813.63;;
52888;SDS011;41413;52.770;6.892;2023-05-24T05:34:16;903.55;;;779.95;;
52888;SDS011;41413;52.770;6.892;2023-05-24T05:36:43;946.25;;;783.92;;
52888;SDS011;41413;52.770;6.892;2023-05-24T05:39:10;933.45;;;790.95;;
52888;SDS011;41413;52.770;6.892;2023-05-24T05:41:39;957.80;;;804.00;;
52888;SDS011;41413;52.770;6.892;2023-05-24T05:44:11;967.33;;;786.47;;
52888;SDS011;41413;52.770;6.892;2023-05-24T05:46:38;942.13;;;737.70;;
52888;SDS011;41413;52.770;6.892;2023-05-24T05:49:06;929.53;;;768.60;;
52888;SDS011;41413;52.770;6.892;2023-05-24T05:51:33;883.28;;;739.00;;
52888;SDS011;41413;52.770;6.892;2023-05-24T05:54:00;1038.60;;;815.40;;
52888;SDS011;41413;52.770;6.892;2023-05-24T05:56:26;775.58;;;668.55;;
52888;SDS011;41413;52.770;6.892;2023-05-24T05:58:53;863.40;;;728.83;;
52888;SDS011;41413;52.770;6.892;2023-05-24T06:01:20;886.50;;;759.38;;
52888;SDS011;41413;52.770;6.892;2023-05-24T06:03:47;871.03;;;724.95;;
52888;SDS011;41413;52.770;6.892;2023-05-24T06:06:14;930.47;;;786.35;;
52888;SDS011;41413;52.770;6.892;2023-05-24T06:08:41;819.85;;;680.65;;
52888;SDS011;41413;52.770;6.892;2023-05-24T06:11:08;850.80;;;704.30;;
52888;SDS011;41413;52.770;6.892;2023-05-24T06:13:35;1002.97;;;810.42;;
52888;SDS011;41413;52.770;6.892;2023-05-24T06:16:01;943.75;;;788.45;;
52888;SDS011;41413;52.770;6.892;2023-05-24T06:18:28;898.40;;;763.80;;
52888;SDS011;41413;52.770;6.892;2023-05-24T06:20:57;882.42;;;739.15;;
52888;SDS011;41413;52.770;6.892;2023-05-24T06:23:23;885.40;;;743.08;;
52888;SDS011;41413;52.770;6.892;2023-05-24T06:25:50;940.45;;;760.60;;
52888;SDS011;41413;52.770;6.892;2023-05-24T06:28:17;1003.30;;;780.78;;
52888;SDS011;41413;52.770;6.892;2023-05-24T06:30:45;907.20;;;732.80;;
52888;SDS011;41413;52.770;6.892;2023-05-24T06:33:12;917.47;;;749.28;;
52888;SDS011;41413;52.770;6.892;2023-05-24T06:35:39;1020.72;;;810.95;;
52888;SDS011;41413;52.770;6.892;2023-05-24T06:38:06;850.05;;;735.90;;
52888;SDS011;41413;52.770;6.892;2023-05-24T06:40:33;898.58;;;730.85;;
52888;SDS011;41413;52.770;6.892;2023-05-24T06:43:00;818.83;;;711.30;;
52888;SDS011;41413;52.770;6.892;2023-05-24T06:45:26;923.03;;;770.40;;
52888;SDS011;41413;52.770;6.892;2023-05-24T06:47:53;981.15;;;819.10;;
52888;SDS011;41413;52.770;6.892;2023-05-24T06:50:20;802.22;;;704.13;;
52888;SDS011;41413;52.770;6.892;2023-05-24T06:52:47;896.55;;;757.30;;
52888;SDS011;41413;52.770;6.892;2023-05-24T06:55:14;818.50;;;716.45;;
52888;SDS011;41413;52.770;6.892;2023-05-24T06:57:41;809.72;;;701.30;;
52888;SDS011;41413;52.770;6.892;2023-05-24T07:00:08;927.22;;;763.45;;
52888;SDS011;41413;52.770;6.892;2023-05-24T07:02:37;931.72;;;789.33;;
52888;SDS011;41413;52.770;6.892;2023-05-24T07:05:04;843.58;;;707.13;;
52888;SDS011;41413;52.770;6.892;2023-05-24T07:07:37;791.80;;;672.30;;
52888;SDS011;41413;52.770;6.892;2023-05-24T07:10:06;816.38;;;718.25;;
52888;SDS011;41413;52.770;6.892;2023-05-24T07:12:34;889.90;;;782.80;;
52888;SDS011;41413;52.770;6.892;2023-05-24T07:15:01;769.67;;;659.97;;
52888;SDS011;41413;52.770;6.892;2023-05-24T07:17:28;750.47;;;665.45;;
52888;SDS011;41413;52.770;6.892;2023-05-24T07:19:55;964.95;;;802.03;;
52888;SDS011;41413;52.770;6.892;2023-05-24T07:22:22;786.28;;;699.83;;
52888;SDS011;41413;52.770;6.892;2023-05-24T07:24:50;825.03;;;705.22;;
52888;SDS011;41413;52.770;6.892;2023-05-24T07:27:17;837.67;;;731.00;;
52888;SDS011;41413;52.770;6.892;2023-05-24T07:29:44;811.28;;;721.92;;
52888;SDS011;41413;52.770;6.892;2023-05-24T07:32:13;870.05;;;751.72;;
52888;SDS011;41413;52.770;6.892;2023-05-24T07:34:40;771.70;;;668.80;;
52888;SDS011;41413;52.770;6.892;2023-05-24T07:37:08;783.90;;;682.78;;
52888;SDS011;41413;52.770;6.892;2023-05-24T07:39:34;775.75;;;689.35;;
52888;SDS011;41413;52.770;6.892;2023-05-24T07:42:01;705.95;;;631.13;;
52888;SDS011;41413;52.770;6.892;2023-05-24T07:44:28;851.05;;;756.33;;
52888;SDS011;41413;52.770;6.892;2023-05-24T07:46:55;756.97;;;673.33;;
52888;SDS011;41413;52.770;6.892;2023-05-24T07:49:22;708.95;;;628.25;;
52888;SDS011;41413;52.770;6.892;2023-05-24T07:51:49;894.10;;;763.67;;
52888;SDS011;41413;52.770;6.892;2023-05-24T07:54:16;856.40;;;730.25;;
52888;SDS011;41413;52.770;6.892;2023-05-24T07:56:42;762.95;;;678.58;;
52888;SDS011;41413;52.770;6.892;2023-05-24T07:59:09;714.55;;;636.10;;
52888;SDS011;41413;52.770;6.892;2023-05-24T08:01:36;746.03;;;664.22;;
52888;SDS011;41413;52.770;6.892;2023-05-24T08:04:03;801.38;;;698.13;;
52888;SDS011;41413;52.770;6.892;2023-05-24T08:06:30;767.00;;;684.22;;
52888;SDS011;41413;52.770;6.892;2023-05-24T08:09:00;804.17;;;703.95;;
52888;SDS011;41413;52.770;6.892;2023-05-24T08:11:29;769.08;;;685.67;;
52888;SDS011;41413;52.770;6.892;2023-05-24T08:13:56;713.38;;;636.53;;
52888;SDS011;41413;52.770;6.892;2023-05-24T08:16:23;715.88;;;638.85;;
52888;SDS011;41413;52.770;6.892;2023-05-24T08:18:49;747.92;;;636.90;;
52888;SDS011;41413;52.770;6.892;2023-05-24T08:21:20;738.10;;;658.53;;
52888;SDS011;41413;52.770;6.892;2023-05-24T08:23:47;742.08;;;662.28;;
52888;SDS011;41413;52.770;6.892;2023-05-24T08:26:14;810.10;;;721.47;;
52888;SDS011;41413;52.770;6.892;2023-05-24T08:28:44;751.95;;;669.78;;
52888;SDS011;41413;52.770;6.892;2023-05-24T08:31:10;685.17;;;610.83;;
52888;SDS011;41413;52.770;6.892;2023-05-24T08:33:38;729.78;;;654.45;;
52888;SDS011;41413;52.770;6.892;2023-05-24T08:36:04;763.17;;;685.70;;
52888;SDS011;41413;52.770;6.892;2023-05-24T08:38:32;686.72;;;616.45;;
52888;SDS011;41413;52.770;6.892;2023-05-24T08:40:58;604.03;;;540.78;;
52888;SDS011;41413;52.770;6.892;2023-05-24T08:43:27;668.88;;;599.67;;
52888;SDS011;41413;52.770;6.892;2023-05-24T08:45:57;681.50;;;613.95;;
52888;SDS011;41413;52.770;6.892;2023-05-24T08:48:25;619.88;;;554.95;;
52888;SDS011;41413;52.770;6.892;2023-05-24T08:50:53;636.65;;;572.50;;
52888;SDS011;41413;52.770;6.892;2023-05-24T08:53:22;762.50;;;682.00;;
52888;SDS011;41413;52.770;6.892;2023-05-24T08:55:49;644.67;;;578.10;;
52888;SDS011;41413;52.770;6.892;2023-05-24T08:58:20;721.72;;;643.55;;
52888;SDS011;41413;52.770;6.892;2023-05-24T09:00:47;683.20;;;611.50;;
52888;SDS011;41413;52.770;6.892;2023-05-24T09:03:17;609.60;;;545.90;;
52888;SDS011;41413;52.770;6.892;2023-05-24T09:05:45;660.33;;;590.72;;
52888;SDS011;41413;52.770;6.892;2023-05-24T09:08:12;665.33;;;596.25;;
52888;SDS011;41413;52.770;6.892;2023-05-24T09:10:43;655.03;;;585.97;;
52888;SDS011;41413;52.770;6.892;2023-05-24T09:13:17;619.73;;;554.53;;
52888;SDS011;41413;52.770;6.892;2023-05-24T09:15:44;697.05;;;625.38;;
52888;SDS011;41413;52.770;6.892;2023-05-24T09:18:11;627.65;;;562.83;;
52888;SDS011;41413;52.770;6.892;2023-05-24T09:20:38;681.95;;;611.13;;
52888;SDS011;41413;52.770;6.892;2023-05-24T09:23:05;676.42;;;605.65;;
52888;SDS011;41413;52.770;6.892;2023-05-24T09:25:33;655.58;;;588.67;;
52888;SDS011;41413;52.770;6.892;2023-05-24T09:28:05;779.55;;;694.63;;
52888;SDS011;41413;52.770;6.892;2023-05-24T09:30:34;649.97;;;582.55;;
52888;SDS011;41413;52.770;6.892;2023-05-24T09:33:01;647.45;;;581.90;;
52888;SDS011;41413;52.770;6.892;2023-05-24T09:35:30;573.97;;;515.53;;
52888;SDS011;41413;52.770;6.892;2023-05-24T09:37:57;673.70;;;605.03;;
52888;SDS011;41413;52.770;6.892;2023-05-24T09:40:27;597.88;;;535.67;;
52888;SDS011;41413;52.770;6.892;2023-05-24T09:43:01;648.35;;;582.72;;
52888;SDS011;41413;52.770;6.892;2023-05-24T09:45:40;613.67;;;550.50;;
52888;SDS011;41413;52.770;6.892;2023-05-24T09:48:09;700.05;;;627.00;;
52888;SDS011;41413;52.770;6.892;2023-05-24T09:50:37;624.25;;;558.50;;
52888;SDS011;41413;52.770;6.892;2023-05-24T09:53:05;739.13;;;663.72;;
52888;SDS011;41413;52.770;6.892;2023-05-24T09:55:35;614.78;;;552.13;;
52888;SDS011;41413;52.770;6.892;2023-05-24T10:00:35;723.70;;;648.95;;
52888;SDS011;41413;52.770;6.892;2023-05-24T10:03:07;748.35;;;668.38;;
52888;SDS011;41413;52.770;6.892;2023-05-24T10:05:40;663.30;;;595.20;;
52888;SDS011;41413;52.770;6.892;2023-05-24T10:08:10;664.90;;;593.90;;
52888;SDS011;41413;52.770;6.892;2023-05-24T10:10:37;690.25;;;620.38;;
52888;SDS011;41413;52.770;6.892;2023-05-24T10:13:03;689.22;;;618.40;;
52888;SDS011;41413;52.770;6.892;2023-05-24T10:15:30;788.83;;;709.92;;
52888;SDS011;41413;52.770;6.892;2023-05-24T10:17:57;657.05;;;590.65;;
52888;SDS011;41413;52.770;6.892;2023-05-24T10:20:27;648.83;;;583.08;;
52888;SDS011;41413;52.770;6.892;2023-05-24T10:22:54;661.97;;;596.55;;
52888;SDS011;41413;52.770;6.892;2023-05-24T10:25:27;636.45;;;573.03;;
52888;SDS011;41413;52.770;6.892;2023-05-24T10:27:59;695.45;;;624.10;;
52888;SDS011;41413;52.770;6.892;2023-05-24T10:33:10;684.42;;;617.30;;
52888;SDS011;41413;52.770;6.892;2023-05-24T10:35:38;632.75;;;568.75;;
52888;SDS011;41413;52.770;6.892;2023-05-24T10:38:06;629.35;;;568.58;;
52888;SDS011;41413;52.770;6.892;2023-05-24T10:40:33;553.33;;;499.30;;
52888;SDS011;41413;52.770;6.892;2023-05-24T10:43:04;581.72;;;526.13;;
52888;SDS011;41413;52.770;6.892;2023-05-24T10:45:35;675.70;;;608.38;;
52888;SDS011;41413;52.770;6.892;2023-05-24T10:50:39;577.90;;;520.42;;
52888;SDS011;41413;52.770;6.892;2023-05-24T10:53:26;606.10;;;549.53;;
52888;SDS011;41413;52.770;6.892;2023-05-24T10:55:56;659.08;;;594.88;;
52888;SDS011;41413;52.770;6.892;2023-05-24T11:01:29;645.22;;;581.25;;
52888;SDS011;41413;52.770;6.892;2023-05-24T11:06:47;614.78;;;552.53;;
52888;SDS011;41413;52.770;6.892;2023-05-24T11:09:16;619.95;;;561.28;;
52888;SDS011;41413;52.770;6.892;2023-05-24T11:11:43;539.70;;;487.17;;
52888;SDS011;41413;52.770;6.892;2023-05-24T11:14:11;613.63;;;552.40;;
52888;SDS011;41413;52.770;6.892;2023-05-24T11:16:38;570.28;;;516.03;;
52888;SDS011;41413;52.770;6.892;2023-05-24T11:19:19;612.88;;;556.33;;
52888;SDS011;41413;52.770;6.892;2023-05-24T11:21:47;577.80;;;522.90;;
52888;SDS011;41413;52.770;6.892;2023-05-24T11:24:15;659.60;;;595.67;;
52888;SDS011;41413;52.770;6.892;2023-05-24T11:26:43;587.88;;;530.60;;
52888;SDS011;41413;52.770;6.892;2023-05-24T11:29:14;555.00;;;498.67;;
52888;SDS011;41413;52.770;6.892;2023-05-24T11:31:46;578.20;;;520.35;;
52888;SDS011;41413;52.770;6.892;2023-05-24T11:34:18;620.20;;;561.17;;
52888;SDS011;41413;52.770;6.892;2023-05-24T11:36:45;657.30;;;592.38;;
52888;SDS011;41413;52.770;6.892;2023-05-24T11:39:13;658.08;;;590.17;;
52888;SDS011;41413;52.770;6.892;2023-05-24T11:41:41;624.25;;;561.45;;
52888;SDS011;41413;52.770;6.892;2023-05-24T11:44:09;647.58;;;583.00;;
52888;SDS011;41413;52.770;6.892;2023-05-24T11:46:39;629.28;;;566.20;;
52888;SDS011;41413;52.770;6.892;2023-05-24T11:49:11;676.60;;;610.15;;
52888;SDS011;41413;52.770;6.892;2023-05-24T11:51:39;586.78;;;527.97;;
52888;SDS011;41413;52.770;6.892;2023-05-24T11:54:06;605.85;;;547.17;;
52888;SDS011;41413;52.770;6.892;2023-05-24T11:56:33;683.33;;;614.13;;
52888;SDS011;41413;52.770;6.892;2023-05-24T11:59:08;631.53;;;569.88;;
52888;SDS011;41413;52.770;6.892;2023-05-24T12:01:35;651.55;;;587.30;;
52888;SDS011;41413;52.770;6.892;2023-05-24T12:04:04;655.42;;;590.63;;
52888;SDS011;41413;52.770;6.892;2023-05-24T12:06:39;569.60;;;514.58;;
52888;SDS011;41413;52.770;6.892;2023-05-24T12:09:08;573.90;;;518.35;;
52888;SDS011;41413;52.770;6.892;2023-05-24T12:11:39;581.03;;;525.70;;
52888;SDS011;41413;52.770;6.892;2023-05-24T12:14:07;595.83;;;537.30;;
52888;SDS011;41413;52.770;6.892;2023-05-24T12:16:37;577.80;;;518.28;;
52888;SDS011;41413;52.770;6.892;2023-05-24T12:19:05;603.63;;;544.13;;
52888;SDS011;41413;52.770;6.892;2023-05-24T12:21:45;591.17;;;534.33;;
52888;SDS011;41413;52.770;6.892;2023-05-24T12:24:13;668.83;;;603.08;;
52888;SDS011;41413;52.770;6.892;2023-05-24T12:26:42;579.15;;;524.50;;
52888;SDS011;41413;52.770;6.892;2023-05-24T12:29:10;649.40;;;588.10;;
52888;SDS011;41413;52.770;6.892;2023-05-24T12:31:38;652.35;;;593.88;;
52888;SDS011;41413;52.770;6.892;2023-05-24T12:34:12;600.97;;;547.28;;
52888;SDS011;41413;52.770;6.892;2023-05-24T12:36:41;541.17;;;492.50;;
52888;SDS011;41413;52.770;6.892;2023-05-24T12:39:42;533.92;;;485.98;;
52888;SDS011;41413;52.770;6.892;2023-05-24T12:42:03;516.13;;;468.38;;
52888;SDS011;41413;52.770;6.892;2023-05-24T12:44:30;492.48;;;449.48;;
52888;SDS011;41413;52.770;6.892;2023-05-24T12:47:00;531.08;;;485.80;;
52888;SDS011;41413;52.770;6.892;2023-05-24T12:49:28;503.73;;;459.50;;
52888;SDS011;41413;52.770;6.892;2023-05-24T12:51:56;502.30;;;459.80;;
52888;SDS011;41413;52.770;6.892;2023-05-24T12:54:24;496.42;;;452.77;;
52888;SDS011;41413;52.770;6.892;2023-05-24T12:56:52;468.13;;;428.25;;
52888;SDS011;41413;52.770;6.892;2023-05-24T12:59:22;531.72;;;486.73;;
52888;SDS011;41413;52.770;6.892;2023-05-24T13:01:49;603.55;;;550.15;;
52888;SDS011;41413;52.770;6.892;2023-05-24T13:04:17;464.88;;;426.17;;
52888;SDS011;41413;52.770;6.892;2023-05-24T13:06:46;476.65;;;436.65;;
52888;SDS011;41413;52.770;6.892;2023-05-24T13:09:13;484.65;;;442.85;;
52888;SDS011;41413;52.770;6.892;2023-05-24T13:11:43;445.65;;;407.42;;
52888;SDS011;41413;52.770;6.892;2023-05-24T13:14:10;463.77;;;424.25;;
52888;SDS011;41413;52.770;6.892;2023-05-24T13:16:38;505.60;;;461.23;;
52888;SDS011;41413;52.770;6.892;2023-05-24T13:19:05;438.73;;;400.30;;
52888;SDS011;41413;52.770;6.892;2023-05-24T13:21:31;482.13;;;439.13;;
52888;SDS011;41413;52.770;6.892;2023-05-24T13:23:58;492.23;;;451.08;;
52888;SDS011;41413;52.770;6.892;2023-05-24T13:26:25;478.05;;;433.40;;
52888;SDS011;41413;52.770;6.892;2023-05-24T13:28:52;495.40;;;452.48;;
52888;SDS011;41413;52.770;6.892;2023-05-24T13:31:39;494.05;;;450.42;;
52888;SDS011;41413;52.770;6.892;2023-05-24T13:34:07;640.95;;;582.60;;
52888;SDS011;41413;52.770;6.892;2023-05-24T13:36:36;558.30;;;508.88;;
52888;SDS011;41413;52.770;6.892;2023-05-24T13:39:05;553.65;;;502.35;;
52888;SDS011;41413;52.770;6.892;2023-05-24T13:41:37;510.85;;;463.52;;
52888;SDS011;41413;52.770;6.892;2023-05-24T13:44:05;540.40;;;490.23;;
52888;SDS011;41413;52.770;6.892;2023-05-24T13:46:32;542.88;;;494.17;;
52888;SDS011;41413;52.770;6.892;2023-05-24T13:48:59;538.25;;;488.75;;
52888;SDS011;41413;52.770;6.892;2023-05-24T13:51:26;579.35;;;527.00;;
52888;SDS011;41413;52.770;6.892;2023-05-24T13:53:53;569.38;;;515.95;;
52888;SDS011;41413;52.770;6.892;2023-05-24T13:56:20;534.88;;;485.90;;
52888;SDS011;41413;52.770;6.892;2023-05-24T13:58:49;602.80;;;546.83;;
52888;SDS011;41413;52.770;6.892;2023-05-24T14:01:16;623.72;;;564.90;;
52888;SDS011;41413;52.770;6.892;2023-05-24T14:03:43;577.25;;;521.80;;
52888;SDS011;41413;52.770;6.892;2023-05-24T14:06:09;619.55;;;561.33;;
52888;SDS011;41413;52.770;6.892;2023-05-24T14:08:36;604.03;;;548.05;;
52888;SDS011;41413;52.770;6.892;2023-05-24T14:11:03;621.67;;;565.47;;
52888;SDS011;41413;52.770;6.892;2023-05-24T14:13:30;542.92;;;490.23;;
52888;SDS011;41413;52.770;6.892;2023-05-24T14:16:16;610.92;;;555.92;;
52888;SDS011;41413;52.770;6.892;2023-05-24T14:18:43;562.47;;;509.80;;
52888;SDS011;41413;52.770;6.892;2023-05-24T14:21:11;558.35;;;505.33;;
52888;SDS011;41413;52.770;6.892;2023-05-24T14:23:37;569.13;;;517.05;;
52888;SDS011;41413;52.770;6.892;2023-05-24T14:26:04;678.78;;;614.17;;
52888;SDS011;41413;52.770;6.892;2023-05-24T14:28:31;572.10;;;519.35;;